createdAt,value
2023-01-19T00:00:06.264Z,100102.94
2023-01-19T00:02:32.934Z,100094.25
2023-01-19T00:04:59.490Z,100095.69
2023-01-19T00:07:25.963Z,100086.78
2023-01-19T00:09:52.431Z,100094.03
2023-01-19T00:12:18.920Z,100088.66
2023-01-19T00:14:45.409Z,100091.34
2023-01-19T00:17:11.972Z,100095.09
2023-01-19T00:19:38.630Z,100095.50
2023-01-19T00:22:05.972Z,100097.56
2023-01-19T00:24:32.935Z,100105.03
2023-01-19T00:27:00.178Z,100105.66
2023-01-19T00:29:27.665Z,100100.47
2023-01-19T00:31:54.227Z,100106.25
2023-01-19T00:34:20.717Z,100108.75
2023-01-19T00:36:47.266Z,100112.47
2023-01-19T00:39:13.828Z,100108.53
2023-01-19T00:41:58.935Z,100097.16
2023-01-19T00:44:25.443Z,100099.19
2023-01-19T00:46:51.944Z,100084.28
2023-01-19T00:49:18.654Z,100087.19
2023-01-19T00:51:45.207Z,100086.56
2023-01-19T00:54:11.739Z,100090.28
2023-01-19T00:56:38.372Z,100095.06
2023-01-19T00:59:04.987Z,100087.41
2023-01-19T01:01:45.361Z,100087.41
2023-01-19T01:04:13.586Z,100085.31
2023-01-19T01:06:40.450Z,100093.81
2023-01-19T01:09:11.800Z,100091.97
2023-01-19T01:11:40.133Z,100109.19
2023-01-19T01:14:06.900Z,100115.78
2023-01-19T01:16:33.594Z,100123.66
2023-01-19T01:19:00.308Z,100105.66
2023-01-19T01:21:27.077Z,100115.38
2023-01-19T01:23:53.581Z,100111.88
2023-01-19T01:26:20.108Z,100118.28
2023-01-19T01:28:46.693Z,100108.53
2023-01-19T01:31:13.281Z,100110.19
2023-01-19T01:33:41.799Z,100100.44
2023-01-19T01:36:10.164Z,100109.59
2023-01-19T01:38:36.716Z,100106.25
2023-01-19T01:41:03.557Z,100110.00
2023-01-19T01:43:53.342Z,100117.88
2023-01-19T01:46:20.333Z,100118.28
2023-01-19T01:48:54.715Z,100111.66
2023-01-19T01:51:28.335Z,100129.25
2023-01-19T01:54:02.751Z,100124.06
2023-01-19T01:56:38.913Z,100123.66
2023-01-19T01:59:11.271Z,100127.56
2023-01-19T02:01:56.744Z,100123.84
2023-01-19T02:04:23.944Z,100126.31
2023-01-19T02:07:09.291Z,100123.81
2023-01-19T02:09:55.525Z,100136.25
2023-01-19T02:12:41.298Z,100131.66
2023-01-19T02:15:16.022Z,100132.25
2023-01-19T02:17:43.171Z,100131.22
2023-01-19T02:20:10.596Z,100136.34
2023-01-19T02:22:46.359Z,100151.31
2023-01-19T02:25:13.250Z,100137.78
2023-01-19T02:27:39.865Z,100141.91
2023-01-19T02:30:07.974Z,100144.38
2023-01-19T02:32:34.474Z,100151.66
2023-01-19T02:35:01.314Z,100147.28
2023-01-19T02:37:32.565Z,100149.28
2023-01-19T02:40:02.173Z,100160.72
2023-01-19T02:42:45.474Z,100151.34
2023-01-19T02:45:15.422Z,100156.91
2023-01-19T02:47:51.058Z,100158.38
2023-01-19T02:50:38.246Z,100163.97
2023-01-19T02:53:26.767Z,100165.66
2023-01-19T02:55:59.282Z,100171.13
2023-01-19T02:58:49.287Z,100172.22
2023-01-19T03:01:52.983Z,100168.06
2023-01-19T03:04:33.450Z,100176.50
2023-01-19T03:07:11.083Z,100182.94
2023-01-19T03:09:49.529Z,100183.13
2023-01-19T03:12:48.331Z,100180.88
2023-01-19T03:15:23.546Z,100193.31
2023-01-19T03:17:52.904Z,100200.34
2023-01-19T03:20:24.698Z,100192.50
2023-01-19T03:22:59.010Z,100196.84
2023-01-19T03:25:26.171Z,100200.09
2023-01-19T03:27:57.357Z,100206.06
2023-01-19T03:30:32.130Z,100204.06
2023-01-19T03:33:07.877Z,100201.69
2023-01-19T03:35:38.760Z,100212.84
2023-01-19T03:38:10.312Z,100215.41
2023-01-19T03:40:37.579Z,100213.06
2023-01-19T03:43:05.214Z,100208.91
2023-01-19T03:45:35.549Z,100228.75
2023-01-19T03:48:02.753Z,100219.88
2023-01-19T03:50:30.562Z,100230.00
2023-01-19T03:53:16.747Z,100242.47
2023-01-19T03:55:47.074Z,100243.31
2023-01-19T03:58:14.108Z,100243.72
2023-01-19T04:00:41.447Z,100247.56
2023-01-19T04:03:14.644Z,100261.22
2023-01-19T04:05:41.624Z,100254.38
2023-01-19T04:08:08.249Z,100265.81
2023-01-19T04:10:34.789Z,100263.78
2023-01-19T04:13:03.011Z,100254.75
2023-01-19T04:15:30.613Z,100264.53
2023-01-19T04:17:58.383Z,100261.97
2023-01-19T04:20:27.072Z,100264.66
2023-01-19T04:22:54.963Z,100267.22
2023-01-19T04:25:21.618Z,100266.34
2023-01-19T04:27:52.732Z,100265.28
2023-01-19T04:30:19.568Z,100273.00
2023-01-19T04:32:46.292Z,100273.84
2023-01-19T04:35:12.807Z,100274.66
2023-01-19T04:37:39.984Z,100272.50
2023-01-19T04:40:07.259Z,100276.22
2023-01-19T04:42:33.745Z,100290.34
2023-01-19T04:45:00.213Z,100285.13
2023-01-19T04:47:26.748Z,100279.91
2023-01-19T04:49:53.218Z,100267.19
2023-01-19T04:52:20.252Z,100222.88
2023-01-19T04:54:46.737Z,100204.06
2023-01-19T04:57:13.225Z,100195.81
2023-01-19T04:59:40.120Z,100213.84
2023-01-19T05:02:06.699Z,100213.41
2023-01-19T05:04:33.668Z,100217.75
2023-01-19T05:07:00.122Z,100212.38
2023-01-19T05:09:27.294Z,100208.84
2023-01-19T05:11:53.955Z,100207.03
2023-01-19T05:14:20.703Z,100201.41
2023-01-19T05:16:47.206Z,100210.53
2023-01-19T05:19:13.750Z,100206.16
2023-01-19T05:21:40.275Z,100197.94
2023-01-19T05:24:07.278Z,100215.25
2023-01-19T05:26:33.758Z,100223.31
2023-01-19T05:29:00.216Z,100223.75
2023-01-19T05:31:26.775Z,100226.66
2023-01-19T05:33:53.388Z,100236.63
2023-01-19T05:36:19.932Z,100243.41
2023-01-19T05:38:46.438Z,100244.88
2023-01-19T05:41:13.055Z,100242.41
2023-01-19T05:43:39.524Z,100253.84
2023-01-19T05:46:06.707Z,100255.31
2023-01-19T05:48:33.216Z,100253.63
2023-01-19T05:51:01.285Z,100256.09
2023-01-19T05:53:28.618Z,100260.00
2023-01-19T05:56:00.396Z,100272.88
2023-01-19T05:58:26.935Z,100259.41
2023-01-19T06:00:53.437Z,100266.66
2023-01-19T06:03:20.152Z,100257.59
2023-01-19T06:05:46.841Z,100261.09
2023-01-19T06:08:13.345Z,100268.19
2023-01-19T06:10:40.305Z,100274.13
2023-01-19T06:13:06.980Z,100275.00
2023-01-19T06:15:33.499Z,100274.84
2023-01-19T06:18:01.027Z,100276.44
2023-01-19T06:20:27.542Z,100276.66
2023-01-19T06:22:57.007Z,100286.34
2023-01-19T06:25:25.454Z,100289.25
2023-01-19T06:27:52.072Z,100296.28
2023-01-19T06:30:18.938Z,100286.56
2023-01-19T06:32:45.433Z,100297.94
2023-01-19T06:35:12.236Z,100299.63
2023-01-19T06:37:39.172Z,100304.16
2023-01-19T06:40:06.865Z,100305.03
2023-01-19T06:42:33.471Z,100305.88
2023-01-19T06:45:00.105Z,100313.34
2023-01-19T06:47:26.599Z,100315.38
2023-01-19T06:49:53.259Z,100314.59
2023-01-19T06:52:20.582Z,100328.44
2023-01-19T06:54:47.554Z,100342.91
2023-01-19T06:57:14.249Z,100342.78
2023-01-19T06:59:41.083Z,100339.88
2023-01-19T07:02:26.471Z,100329.06
2023-01-19T07:04:54.701Z,100341.28
2023-01-19T07:07:21.255Z,100340.28
2023-01-19T07:09:48.025Z,100344.81
2023-01-19T07:12:14.660Z,100350.25
2023-01-19T07:14:41.163Z,100359.56
2023-01-19T07:17:07.800Z,100356.06
2023-01-19T07:19:35.322Z,100349.81
2023-01-19T07:22:03.087Z,100363.09
2023-01-19T07:24:30.624Z,100370.94
2023-01-19T07:26:57.134Z,100369.94
2023-01-19T07:29:24.507Z,100364.53
2023-01-19T07:31:51.138Z,100376.84
2023-01-19T07:34:17.733Z,100370.19
2023-01-19T07:36:44.270Z,100373.06
2023-01-19T07:39:10.786Z,100377.88
2023-01-19T07:41:37.365Z,100379.53
2023-01-19T07:44:06.625Z,100391.38
2023-01-19T07:46:33.181Z,100385.19
2023-01-19T07:48:59.973Z,100392.22
2023-01-19T07:51:27.753Z,100398.25
2023-01-19T07:53:54.218Z,100395.28
2023-01-19T07:56:21.994Z,100405.47
2023-01-19T07:58:50.396Z,100407.16
2023-01-19T08:01:17.001Z,100412.47
2023-01-19T08:03:43.741Z,100418.09
2023-01-19T08:06:27.030Z,100424.94
2023-01-19T08:08:53.520Z,100421.59
2023-01-19T08:11:20.083Z,100425.47
2023-01-19T08:13:46.623Z,100431.56
2023-01-19T08:16:13.104Z,100439.75
2023-01-19T08:18:39.656Z,100443.47
2023-01-19T08:21:06.332Z,100443.34
2023-01-19T08:23:32.873Z,100455.06
2023-01-19T08:25:59.355Z,100457.97
2023-01-19T08:28:26.097Z,100465.00
2023-01-19T08:30:55.614Z,100476.59
2023-01-19T08:33:23.769Z,100482.19
2023-01-19T08:35:53.042Z,100490.31
2023-01-19T08:38:19.844Z,100491.09
2023-01-19T08:40:46.448Z,100501.09
2023-01-19T08:43:15.476Z,100497.00
2023-01-19T08:45:49.127Z,100501.09
2023-01-19T08:48:17.567Z,100495.06
2023-01-19T08:50:47.542Z,100506.66
2023-01-19T08:53:14.392Z,100504.63
2023-01-19T08:55:40.969Z,100501.09
2023-01-19T08:58:08.723Z,100510.00
2023-01-19T09:00:39.550Z,100514.44
2023-01-19T09:03:08.101Z,100509.63
2023-01-19T09:05:38.601Z,100509.00
2023-01-19T09:08:08.233Z,100516.22
2023-01-19T09:10:36.147Z,100510.00
2023-01-19T09:13:08.128Z,100520.78
2023-01-19T09:15:37.410Z,100527.16
2023-01-19T09:18:06.790Z,100516.00
2023-01-19T09:20:36.001Z,100512.31
2023-01-19T09:23:02.839Z,100520.56
2023-01-19T09:25:29.477Z,100515.38
2023-01-19T09:27:56.254Z,100523.63
2023-01-19T09:30:22.836Z,100526.03
2023-01-19T09:32:49.382Z,100531.31
2023-01-19T09:35:16.426Z,100528.84
2023-01-19T09:37:47.087Z,100536.91
2023-01-19T09:40:16.580Z,100532.06
2023-01-19T09:42:47.310Z,100529.19
2023-01-19T09:45:22.749Z,100534.34
2023-01-19T09:47:50.775Z,100533.84
2023-01-19T09:50:25.615Z,100532.94
2023-01-19T09:53:02.574Z,100547.19
2023-01-19T09:55:30.419Z,100548.97
2023-01-19T09:57:56.946Z,100546.28
2023-01-19T10:00:24.758Z,100553.97
2023-01-19T10:02:52.960Z,100551.91
2023-01-19T10:05:26.926Z,100565.00
2023-01-19T10:08:17.175Z,100562.78
2023-01-19T10:10:48.418Z,100564.25
2023-01-19T10:13:46.978Z,100568.66
2023-01-19T10:16:35.466Z,100571.19
2023-01-19T10:19:17.113Z,100564.19
2023-01-19T10:21:46.428Z,100564.25
2023-01-19T10:24:30.086Z,100566.28
2023-01-19T10:26:56.995Z,100561.75
2023-01-19T10:29:36.581Z,100566.97
2023-01-19T10:32:13.941Z,100573.25
2023-01-19T10:34:41.616Z,100568.88
2023-01-19T10:37:17.382Z,100573.03
2023-01-19T10:39:53.717Z,100576.16
2023-01-19T10:42:20.407Z,100581.38
2023-01-19T10:44:47.053Z,100567.06
2023-01-19T10:47:19.046Z,100577.72
2023-01-19T10:49:46.341Z,100577.97
2023-01-19T10:52:31.149Z,100575.47
2023-01-19T10:55:00.043Z,100574.88
2023-01-19T10:57:31.636Z,100569.91
2023-01-19T10:59:58.604Z,100570.34
2023-01-19T11:02:27.719Z,100570.13
2023-01-19T11:04:58.690Z,100576.78
2023-01-19T11:07:31.133Z,100567.28
2023-01-19T11:10:21.956Z,100564.84
2023-01-19T11:13:01.395Z,100576.28
2023-01-19T11:15:35.600Z,100569.66
2023-01-19T11:18:05.330Z,100571.97
2023-01-19T11:20:52.649Z,100569.53
2023-01-19T11:23:28.573Z,100574.53
2023-01-19T11:25:58.726Z,100578.31
2023-01-19T11:28:34.143Z,100577.25
2023-01-19T11:31:03.174Z,100579.34
2023-01-19T11:33:34.278Z,100570.00
2023-01-19T11:36:21.260Z,100575.25
2023-01-19T11:38:55.391Z,100579.41
2023-01-19T11:41:31.740Z,100575.06
2023-01-19T11:44:08.670Z,100570.94
2023-01-19T11:46:39.420Z,100567.84
2023-01-19T11:49:12.765Z,100567.03
2023-01-19T11:52:05.751Z,100577.25
2023-01-19T11:54:39.018Z,100582.66
2023-01-19T11:57:12.987Z,100576.84
2023-01-19T11:59:39.543Z,100580.63
2023-01-19T12:02:20.481Z,100579.59
2023-01-19T12:04:49.943Z,100576.91
2023-01-19T12:07:22.171Z,100579.63
2023-01-19T12:09:58.662Z,100575.69
2023-01-19T12:12:33.333Z,100572.84
2023-01-19T12:15:05.515Z,100583.44
2023-01-19T12:17:36.609Z,100578.47
2023-01-19T12:20:21.275Z,100584.56
2023-01-19T12:22:59.865Z,100577.06
2023-01-19T12:25:45.032Z,100588.28
2023-01-19T12:28:15.221Z,100571.69
2023-01-19T12:30:41.796Z,100575.03
2023-01-19T12:33:28.971Z,100585.25
2023-01-19T12:36:01.067Z,100579.84
2023-01-19T12:38:49.221Z,100578.41
2023-01-19T12:41:26.230Z,100584.63
2023-01-19T12:44:11.157Z,100584.22
2023-01-19T12:46:45.949Z,100584.00
2023-01-19T12:49:44.000Z,100585.09
2023-01-19T12:52:47.731Z,100574.28
2023-01-19T12:55:14.167Z,100580.53
2023-01-19T12:57:56.556Z,100586.59
2023-01-19T13:00:23.048Z,100587.59
2023-01-19T13:02:51.239Z,100583.25
2023-01-19T13:05:51.216Z,100597.19
2023-01-19T13:08:20.151Z,100584.91
2023-01-19T13:11:14.318Z,100593.44
2023-01-19T13:13:49.876Z,100591.16
2023-01-19T13:16:19.406Z,100588.47
2023-01-19T13:18:51.527Z,100587.84
2023-01-19T13:21:31.294Z,100585.56
2023-01-19T13:24:00.150Z,100588.03
2023-01-19T13:26:39.001Z,100578.09
2023-01-19T13:29:15.582Z,100572.50
2023-01-19T13:31:44.708Z,100579.56
2023-01-19T13:34:14.497Z,100580.59
2023-01-19T13:36:45.182Z,100578.97
2023-01-19T13:39:26.532Z,100592.47
2023-01-19T13:41:56.068Z,100581.66
2023-01-19T13:44:29.216Z,100585.63
2023-01-19T13:46:57.468Z,100586.84
2023-01-19T13:49:31.272Z,100587.69
2023-01-19T13:52:14.916Z,100581.22
2023-01-19T13:54:53.348Z,100593.50
2023-01-19T13:57:53.559Z,100591.41
2023-01-19T14:00:20.314Z,100594.50
2023-01-19T14:03:04.770Z,100594.72
2023-01-19T14:05:37.533Z,100591.38
2023-01-19T14:08:05.625Z,100594.72
2023-01-19T14:10:33.673Z,100594.28
2023-01-19T14:13:05.426Z,100602.19
2023-01-19T14:15:34.330Z,100596.78
2023-01-19T14:18:15.933Z,100606.34
2023-01-19T14:20:56.623Z,100605.34
2023-01-19T14:23:45.276Z,100603.88
2023-01-19T14:26:49.112Z,100611.59
2023-01-19T14:29:21.516Z,100620.50
2023-01-19T14:32:37.455Z,100621.13
2023-01-19T14:35:04.541Z,100605.34
2023-01-19T14:37:34.742Z,100620.50
2023-01-19T14:40:11.133Z,100610.31
2023-01-19T14:43:00.341Z,100618.03
2023-01-19T14:45:37.296Z,100620.09
2023-01-19T14:48:22.617Z,100632.16
2023-01-19T14:51:02.888Z,100620.09
2023-01-19T14:53:36.561Z,100632.16
2023-01-19T14:56:04.974Z,100637.56
2023-01-19T14:58:33.753Z,100634.69
2023-01-19T15:01:00.707Z,100633.44
2023-01-19T15:03:43.710Z,100644.47
2023-01-19T15:06:17.297Z,100638.00
2023-01-19T15:08:44.807Z,100646.72
2023-01-19T15:11:26.794Z,100659.44
2023-01-19T15:13:54.247Z,100659.59
2023-01-19T15:16:21.920Z,100666.63
2023-01-19T15:18:48.416Z,100663.06
2023-01-19T15:21:19.531Z,100664.31
2023-01-19T15:23:50.438Z,100662.47
2023-01-19T15:26:18.885Z,100664.25
2023-01-19T15:28:45.956Z,100675.28
2023-01-19T15:31:16.005Z,100672.59
2023-01-19T15:33:42.786Z,100673.19
2023-01-19T15:36:18.230Z,100666.91
2023-01-19T15:38:45.504Z,100667.94
2023-01-19T15:41:25.674Z,100665.66
2023-01-19T15:43:52.700Z,100656.50
2023-01-19T15:46:20.668Z,100666.66
2023-01-19T15:48:47.888Z,100664.13
2023-01-19T15:51:16.072Z,100670.56
2023-01-19T15:53:43.427Z,100676.53
2023-01-19T15:56:17.902Z,100676.19
2023-01-19T15:58:44.788Z,100680.31
2023-01-19T16:01:16.127Z,100667.16
2023-01-19T16:03:43.354Z,100673.81
2023-01-19T16:06:10.731Z,100676.25
2023-01-19T16:08:37.584Z,100680.63
2023-01-19T16:11:09.498Z,100692.84
2023-01-19T16:13:36.479Z,100687.16
2023-01-19T16:16:04.937Z,100691.19
2023-01-19T16:18:31.655Z,100696.09
2023-01-19T16:20:58.236Z,100693.25
2023-01-19T16:23:24.832Z,100699.81
2023-01-19T16:26:01.135Z,100705.47
2023-01-19T16:28:27.705Z,100701.97
2023-01-19T16:30:54.525Z,100701.50
2023-01-19T16:33:21.019Z,100702.50
2023-01-19T16:35:47.906Z,100704.19
2023-01-19T16:38:14.582Z,100710.38
2023-01-19T16:40:44.077Z,100714.16
2023-01-19T16:43:10.633Z,100707.88
2023-01-19T16:45:58.109Z,100725.53
2023-01-19T16:48:25.811Z,100722.59
2023-01-19T16:51:00.682Z,100729.28
2023-01-19T16:53:27.963Z,100728.16
2023-01-19T16:55:54.590Z,100725.63
2023-01-19T16:58:21.224Z,100731.84
2023-01-19T17:00:47.785Z,100738.84
2023-01-19T17:03:14.420Z,100732.03
2023-01-19T17:05:40.959Z,100726.41
2023-01-19T17:08:07.490Z,100738.34
2023-01-19T17:10:36.639Z,100740.06
2023-01-19T17:13:03.955Z,100740.84
2023-01-19T17:15:30.899Z,100738.78
2023-01-19T17:17:57.372Z,100728.13
2023-01-19T17:20:23.846Z,100748.84
2023-01-19T17:22:50.361Z,100737.06
2023-01-19T17:25:16.984Z,100750.09
2023-01-19T17:27:43.509Z,100750.34
2023-01-19T17:30:10.785Z,100750.09
2023-01-19T17:32:37.529Z,100759.84
2023-01-19T17:35:04.248Z,100755.47
2023-01-19T17:37:30.734Z,100756.72
2023-01-19T17:39:57.218Z,100757.72
2023-01-19T17:42:24.292Z,100745.50
2023-01-19T17:44:50.834Z,100750.88
2023-01-19T17:47:17.450Z,100756.00
2023-01-19T17:49:43.969Z,100754.13
2023-01-19T17:52:10.491Z,100760.88
2023-01-19T17:54:37.018Z,100758.19
2023-01-19T17:57:03.646Z,100759.44
2023-01-19T17:59:30.190Z,100763.19
2023-01-19T18:01:56.724Z,100764.59
2023-01-19T18:04:23.354Z,100766.63
2023-01-19T18:06:50.125Z,100765.59
2023-01-19T18:09:16.629Z,100760.47
2023-01-19T18:11:43.192Z,100773.13
2023-01-19T18:14:09.686Z,100777.28
2023-01-19T18:16:36.605Z,100777.41
2023-01-19T18:19:03.604Z,100771.03
2023-01-19T18:21:30.367Z,100771.66
2023-01-19T18:24:02.333Z,100784.19
2023-01-19T18:26:29.728Z,100774.13
2023-01-19T18:28:57.085Z,100775.59
2023-01-19T18:31:24.068Z,100775.88
2023-01-19T18:33:50.692Z,100775.75
2023-01-19T18:36:17.651Z,100779.28
2023-01-19T18:38:44.941Z,100776.81
2023-01-19T18:41:14.480Z,100782.75
2023-01-19T18:43:41.587Z,100781.06
2023-01-19T18:46:08.692Z,100782.09
2023-01-19T18:48:36.408Z,100778.78
2023-01-19T18:51:20.712Z,100797.53
2023-01-19T18:53:47.286Z,100786.84
2023-01-19T18:56:15.619Z,100784.34
2023-01-19T18:58:42.884Z,100790.09
2023-01-19T19:01:24.653Z,100794.47
2023-01-19T19:03:52.059Z,100793.81
2023-01-19T19:06:20.659Z,100799.44
2023-01-19T19:08:51.491Z,100797.16
2023-01-19T19:11:19.489Z,100795.75
2023-01-19T19:13:46.193Z,100783.88
2023-01-19T19:16:13.369Z,100794.19
2023-01-19T19:18:39.903Z,100789.81
2023-01-19T19:21:11.619Z,100792.34
2023-01-19T19:23:38.634Z,100798.59
2023-01-19T19:26:07.551Z,100800.69
2023-01-19T19:28:36.685Z,100796.59
2023-01-19T19:31:12.453Z,100798.19
2023-01-19T19:33:39.235Z,100800.34
2023-01-19T19:36:06.738Z,100811.75
2023-01-19T19:38:34.729Z,100812.78
2023-01-19T19:41:08.313Z,100809.06
2023-01-19T19:43:35.426Z,100810.38
2023-01-19T19:46:05.368Z,100814.91
2023-01-19T19:48:32.634Z,100821.31
2023-01-19T19:51:18.207Z,100818.72
2023-01-19T19:53:45.890Z,100827.47
2023-01-19T19:56:13.135Z,100816.41
2023-01-19T19:58:41.709Z,100822.91
2023-01-19T20:01:14.187Z,100827.25
2023-01-19T20:03:41.347Z,100826.31
2023-01-19T20:06:13.799Z,100835.91
2023-01-19T20:08:40.518Z,100839.31
2023-01-19T20:11:12.680Z,100847.41
2023-01-19T20:13:40.797Z,100847.41
2023-01-19T20:16:12.479Z,100849.94
2023-01-19T20:18:43.672Z,100848.91
2023-01-19T20:21:18.635Z,100850.09
2023-01-19T20:23:46.699Z,100859.19
2023-01-19T20:26:15.477Z,100855.47
2023-01-19T20:28:42.328Z,100857.63
2023-01-19T20:31:22.444Z,100877.03
2023-01-19T20:33:50.568Z,100874.03
2023-01-19T20:36:17.514Z,100876.25
2023-01-19T20:38:44.592Z,100885.19
2023-01-19T20:41:12.635Z,100897.63
2023-01-19T20:43:39.634Z,100892.78
2023-01-19T20:46:06.721Z,100905.53
2023-01-19T20:48:33.289Z,100908.56
2023-01-19T20:51:01.888Z,100924.25
2023-01-19T20:53:29.412Z,100925.16
2023-01-19T20:55:56.070Z,100933.78
2023-01-19T20:58:23.474Z,100927.16
2023-01-19T21:00:50.727Z,100927.84
2023-01-19T21:03:17.353Z,100944.53
2023-01-19T21:05:46.830Z,100950.75
2023-01-19T21:08:14.717Z,100943.59
2023-01-19T21:10:42.274Z,100940.25
2023-01-19T21:13:09.069Z,100952.56
2023-01-19T21:15:35.567Z,100951.00
2023-01-19T21:18:02.169Z,100956.44
2023-01-19T21:20:31.603Z,100952.91
2023-01-19T21:22:58.944Z,100962.41
2023-01-19T21:25:25.468Z,100959.19
2023-01-19T21:27:51.988Z,100960.50
2023-01-19T21:30:18.746Z,100963.16
2023-01-19T21:32:45.255Z,100960.09
2023-01-19T21:35:12.221Z,100965.66
2023-01-19T21:37:38.904Z,100965.19
2023-01-19T21:40:06.288Z,100966.69
2023-01-19T21:42:32.854Z,100969.84
2023-01-19T21:44:59.345Z,100972.78
2023-01-19T21:47:25.863Z,100982.00
2023-01-19T21:49:52.427Z,100979.94
2023-01-19T21:52:18.951Z,100993.59
2023-01-19T21:54:45.427Z,100974.56
2023-01-19T21:57:15.071Z,100990.97
2023-01-19T21:59:41.647Z,100996.09
2023-01-19T22:02:11.559Z,101001.00
2023-01-19T22:04:39.143Z,100999.84
2023-01-19T22:07:06.471Z,100996.72
2023-01-19T22:09:36.415Z,100998.56
2023-01-19T22:12:03.128Z,101007.22
2023-01-19T22:14:29.688Z,101002.22
2023-01-19T22:16:56.247Z,101006.75
2023-01-19T22:19:22.780Z,101014.31
2023-01-19T22:21:49.362Z,101007.47
2023-01-19T22:24:15.924Z,101002.16
2023-01-19T22:26:42.671Z,101005.00
2023-01-19T22:29:11.221Z,101012.25
2023-01-19T22:31:39.065Z,101022.44
2023-01-19T22:34:10.351Z,101021.84
2023-01-19T22:36:38.066Z,101029.50
2023-01-19T22:39:10.131Z,101034.84
2023-01-19T22:41:43.842Z,101033.16
2023-01-19T22:44:20.884Z,101031.28
2023-01-19T22:46:48.579Z,101023.38
2023-01-19T22:49:16.976Z,101021.72
2023-01-19T22:51:44.148Z,101024.47
2023-01-19T22:54:11.004Z,101024.09
2023-01-19T22:56:39.438Z,101028.28
2023-01-19T22:59:06.673Z,101025.19
2023-01-19T23:01:40.082Z,101022.53
2023-01-19T23:04:08.476Z,101022.44
2023-01-19T23:06:36.616Z,101012.03
2023-01-19T23:09:10.063Z,101013.03
2023-01-19T23:11:39.911Z,101013.03
2023-01-19T23:14:09.415Z,101017.41
2023-01-19T23:16:36.280Z,101017.28
2023-01-19T23:19:03.533Z,101023.16
2023-01-19T23:21:31.469Z,101007.69
2023-01-19T23:24:03.008Z,101031.56
2023-01-19T23:26:30.942Z,101011.97
2023-01-19T23:29:01.850Z,101014.66
2023-01-19T23:31:34.451Z,101017.41
2023-01-19T23:34:03.735Z,101019.69
2023-01-19T23:36:32.427Z,101014.59
2023-01-19T23:39:04.369Z,101026.84
2023-01-19T23:41:32.358Z,101023.75
2023-01-19T23:43:58.843Z,101026.84
2023-01-19T23:46:25.384Z,101028.06
2023-01-19T23:48:51.963Z,101037.13
2023-01-19T23:51:21.634Z,101043.41
2023-01-19T23:53:48.625Z,101026.94
2023-01-19T23:56:18.655Z,101043.56
2023-01-19T23:58:46.746Z,101034.13
